Time;durP1;ratioP1;P1;durP2;ratioP2;P2;SDS_P1;SDS_P2;PMS_P1;PMS_P2;Temp;Humidity;BMP_temperature;BMP_pressure;BME280_temperature;BME280_humidity;BME280_pressure;Samples;Min_cycle;Max_cycle;Signal;HPM_P1;HPM_P2
2023/01/06 00:01:20;;;;;;;3.55;2.92;;;;;;;2.41;78.93;100552.23;3462027;80;21813;-76
2023/01/06 00:06:12;;;;;;;3.77;3.47;;;;;;;2.41;78.82;100561.63;3501844;80;20960;-76
2023/01/06 00:11:12;;;;;;;3.08;2.83;;;;;;;2.41;78.84;100573.17;3458054;80;21075;-76
2023/01/06 00:16:10;;;;;;;3.67;2.70;;;;;;;2.40;78.91;100590.68;3468139;81;20947;-76
2023/01/06 00:21:02;;;;;;;3.52;3.22;;;;;;;2.39;78.84;100592.76;3458167;81;20989;-76
2023/01/06 00:25:53;;;;;;;3.37;3.08;;;;;;;2.36;78.82;100602.86;3488645;79;21482;-76
2023/01/06 00:30:44;;;;;;;3.72;3.17;;;;;;;2.33;78.91;100618.14;3442764;81;20950;-76
2023/01/06 00:35:36;;;;;;;3.52;2.65;;;;;;;2.34;79.10;100622.44;3480770;80;21042;-76
2023/01/06 00:40:28;;;;;;;4.00;3.60;;;;;;;2.36;79.08;100639.69;3489405;80;20967;-76
2023/01/06 00:45:19;;;;;;;3.70;3.30;;;;;;;2.36;78.99;100628.52;3456629;80;20921;-75
2023/01/06 00:50:11;;;;;;;3.50;3.17;;;;;;;2.36;78.95;100641.35;3500174;80;21219;-76
2023/01/06 00:55:05;;;;;;;4.37;3.98;;;;;;;2.35;79.18;100657.57;3503261;81;20926;-76
2023/01/06 00:59:56;;;;;;;4.00;3.08;;;;;;;2.35;78.89;100672.97;3419848;80;20971;-76
2023/01/06 01:04:47;;;;;;;3.98;3.30;;;;;;;2.29;78.75;100683.41;3436757;81;21496;-76
2023/01/06 01:09:38;;;;;;;4.65;3.33;;;;;;;2.26;78.72;100686.22;3502827;81;20996;-76
2023/01/06 01:14:29;;;;;;;5.12;3.50;;;;;;;2.23;78.90;100688.20;3493710;81;21031;-76
2023/01/06 01:19:23;;;;;;;4.15;3.67;;;;;;;2.19;78.86;100686.30;3488702;80;20929;-76
2023/01/06 01:24:15;;;;;;;3.85;3.45;;;;;;;2.17;78.80;100699.46;3471338;80;21003;-76
2023/01/06 01:29:06;;;;;;;3.62;3.27;;;;;;;2.14;78.67;100704.84;3472306;81;20992;-76
2023/01/06 01:33:57;;;;;;;3.72;3.40;;;;;;;2.13;78.84;100719.73;3436464;81;20980;-76
2023/01/06 01:38:48;;;;;;;5.90;3.72;;;;;;;2.13;78.74;100715.51;3465459;79;22911;-76
2023/01/06 01:43:51;;;;;;;3.55;3.10;;;;;;;2.15;78.92;100735.70;3477040;81;21573;-76
2023/01/06 01:48:43;;;;;;;4.30;3.90;;;;;;;2.16;78.78;100756.69;3442645;81;20936;-76
2023/01/06 01:53:42;;;;;;;3.90;3.50;;;;;;;2.13;78.65;100751.42;3494308;81;21420;-76
2023/01/06 01:58:38;;;;;;;3.98;3.60;;;;;;;2.13;78.47;100760.77;3523979;80;21478;-76
2023/01/06 02:03:30;;;;;;;3.95;3.55;;;;;;;2.11;78.44;100782.53;3492213;81;21113;-76
2023/01/06 02:08:54;;;;;;;4.42;4.03;;;;;;;2.06;78.42;100777.55;3513534;80;21007;-75
2023/01/06 02:13:46;;;;;;;6.95;4.17;;;;;;;2.02;78.44;100788.43;3494618;80;20953;-76
2023/01/06 02:19:23;;;;;;;4.97;4.47;;;;;;;2.00;78.36;100807.98;3442517;81;21107;-76
2023/01/06 02:24:26;;;;;;;5.35;4.22;;;;;;;1.97;78.54;100811.66;3503040;80;22239;-76
2023/01/06 02:29:32;;;;;;;4.62;4.22;;;;;;;1.93;78.58;100814.47;3491455;81;22001;-76
2023/01/06 02:34:32;;;;;;;4.22;3.83;;;;;;;1.88;78.49;100830.03;3477596;81;21245;-76
2023/01/06 02:39:58;;;;;;;4.97;4.50;;;;;;;1.87;78.70;100843.23;3482889;81;21027;-76
2023/01/06 02:45:24;;;;;;;4.53;4.00;;;;;;;1.86;78.58;100868.41;3510033;80;20933;-76
2023/01/06 02:50:21;;;;;;;3.95;3.60;;;;;;;1.84;78.47;100858.48;3493439;81;21011;-76
2023/01/06 02:55:24;;;;;;;3.73;3.43;;;;;;;1.80;78.43;100883.44;3498731;80;21437;-76
2023/01/06 03:00:49;;;;;;;4.62;3.83;;;;;;;1.78;78.50;100890.17;3485162;81;21491;-76
2023/01/06 03:05:45;;;;;;;4.10;3.72;;;;;;;1.76;78.56;100893.05;3473144;81;20897;-76
2023/01/06 03:10:40;;;;;;;4.58;3.92;;;;;;;1.77;78.64;100902.52;3510730;81;20928;-76
2023/01/06 03:15:32;;;;;;;4.80;4.22;;;;;;;1.71;78.35;100898.32;3450846;81;22111;-76
2023/01/06 03:20:23;;;;;;;4.58;3.77;;;;;;;1.71;78.22;100916.27;3470087;81;21875;-76
2023/01/06 03:25:15;;;;;;;4.95;3.92;;;;;;;1.69;78.33;100924.27;3474016;81;20976;-76
2023/01/06 03:30:10;;;;;;;4.05;3.62;;;;;;;1.69;78.17;100915.30;3446505;81;20932;-76
2023/01/06 03:35:29;;;;;;;4.00;3.60;;;;;;;1.69;78.15;100929.40;3506619;80;20940;-76
2023/01/06 03:40:38;;;;;;;4.70;4.08;;;;;;;1.63;77.85;100932.91;3444254;81;21221;-76
2023/01/06 03:45:52;;;;;;;4.62;3.75;;;;;;;1.63;78.07;100930.34;3476663;79;21114;-76
2023/01/06 03:50:53;;;;;;;3.75;3.35;;;;;;;1.65;77.99;100942.85;3489090;81;21383;-76
2023/01/06 03:55:50;;;;;;;3.55;3.25;;;;;;;1.64;77.89;100947.48;3486084;80;21029;-76
2023/01/06 04:00:42;;;;;;;4.12;3.83;;;;;;;1.65;77.90;100955.66;3483020;81;28230;-76
2023/01/06 04:05:33;;;;;;;3.72;3.42;;;;;;;1.64;77.92;100950.04;3448706;79;21601;-76
2023/01/06 04:10:25;;;;;;;3.22;2.98;;;;;;;1.65;77.86;100968.48;3481967;81;21217;-76
2023/01/06 04:15:23;;;;;;;5.00;3.50;;;;;;;1.65;77.95;100972.33;3473806;79;20976;-76
2023/01/06 04:20:23;;;;;;;3.60;3.30;;;;;;;1.66;77.88;100986.89;3512255;81;20940;-76
2023/01/06 04:25:15;;;;;;;3.87;3.58;;;;;;;1.67;77.93;100983.55;3490196;81;20971;-76
2023/01/06 04:30:08;;;;;;;4.08;3.67;;;;;;;1.67;77.75;100982.27;3513417;80;21442;-76
2023/01/06 04:34:59;;;;;;;4.53;4.08;;;;;;;1.64;77.71;100982.08;3516865;80;21754;-76
2023/01/06 04:39:50;;;;;;;4.33;3.47;;;;;;;1.62;77.84;100976.86;3461046;81;20932;-76
2023/01/06 04:44:42;;;;;;;4.25;3.52;;;;;;;1.63;77.32;100970.08;3438021;81;20916;-77
2023/01/06 04:49:32;;;;;;;3.70;3.37;;;;;;;1.52;77.11;100969.06;3491953;81;21012;-76
2023/01/06 04:54:23;;;;;;;4.00;3.50;;;;;;;1.51;77.08;100976.25;3490168;81;21739;-76
2023/01/06 04:59:15;;;;;;;3.52;3.22;;;;;;;1.49;77.07;100975.28;3487736;81;21487;-76
2023/01/06 05:04:06;;;;;;;3.75;3.25;;;;;;;1.48;77.04;100986.31;3468805;81;20952;-76
2023/01/06 05:08:57;;;;;;;3.52;2.98;;;;;;;1.49;77.05;100985.53;3466493;81;20962;-76
2023/01/06 05:13:49;;;;;;;4.20;3.80;;;;;;;1.53;76.95;100991.72;3477153;80;21087;-76
2023/01/06 05:18:40;;;;;;;4.12;3.30;;;;;;;1.51;77.04;100999.31;3467851;81;20913;-76
2023/01/06 05:23:31;;;;;;;8.55;4.90;;;;;;;1.51;77.14;101001.88;3437124;80;20904;-76
2023/01/06 05:28:22;;;;;;;5.33;4.65;;;;;;;1.51;77.22;100996.75;3431222;81;21475;-76
2023/01/06 05:33:14;;;;;;;4.55;3.65;;;;;;;1.53;77.22;101001.97;3477639;81;20996;-76
2023/01/06 05:38:05;;;;;;;5.08;3.98;;;;;;;1.57;77.34;101010.72;3456182;81;20936;-76
2023/01/06 05:42:57;;;;;;;5.25;3.83;;;;;;;1.59;77.22;101015.16;3461992;81;20979;-76
2023/01/06 05:47:48;;;;;;;6.67;4.47;;;;;;;1.61;77.38;101021.25;3434869;81;21988;-76
2023/01/06 05:52:40;;;;;;;3.90;3.50;;;;;;;1.58;76.92;101023.63;3473938;81;20944;-76
2023/01/06 05:57:35;;;;;;;3.62;3.33;;;;;;;1.52;76.92;101028.00;3434787;81;21443;-76
2023/01/06 06:02:26;;;;;;;3.95;3.05;;;;;;;1.48;76.85;101032.44;3409651;81;21477;-76
2023/01/06 06:07:17;;;;;;;3.90;3.50;;;;;;;1.44;76.46;101041.16;3449909;81;21191;-76
2023/01/06 06:12:08;;;;;;;4.85;3.98;;;;;;;1.39;76.25;101047.27;3495707;81;21193;-76
2023/01/06 06:17:00;;;;;;;3.30;2.87;;;;;;;1.31;76.00;101054.92;3403175;81;21569;-76
2023/01/06 06:21:52;;;;;;;2.95;2.72;;;;;;;1.27;76.17;101049.11;3453043;81;21472;-76
2023/01/06 06:26:43;;;;;;;3.22;2.95;;;;;;;1.24;76.17;101080.56;3500048;81;21510;-75
2023/01/06 06:31:34;;;;;;;3.60;2.95;;;;;;;1.19;75.99;101078.52;3480258;79;21791;-76
2023/01/06 06:36:26;;;;;;;4.15;3.10;;;;;;;1.12;75.85;101087.50;3453366;81;22098;-76
2023/01/06 06:41:19;;;;;;;3.10;2.85;;;;;;;1.10;75.95;101095.09;3456946;79;20972;-75
2023/01/06 06:46:10;;;;;;;3.30;2.92;;;;;;;1.09;75.93;101109.98;3471032;80;21226;-75
2023/01/06 06:51:11;;;;;;;3.22;2.87;;;;;;;1.09;75.99;101109.98;3470383;80;21003;-76
2023/01/06 06:56:08;;;;;;;4.12;3.30;;;;;;;1.07;75.89;101120.53;3511151;81;21773;-75
2023/01/06 07:01:06;;;;;;;3.80;3.50;;;;;;;1.04;76.06;101133.14;3447267;81;22073;-76
2023/01/06 07:05:58;;;;;;;3.37;3.08;;;;;;;1.01;75.82;101140.62;3479779;81;21477;-76
2023/01/06 07:10:50;;;;;;;4.72;3.72;;;;;;;0.98;75.85;101149.78;3486810;81;20968;-76
2023/01/06 07:15:41;;;;;;;3.15;2.85;;;;;;;0.99;75.96;101152.45;3427165;81;21070;-76
2023/01/06 07:20:35;;;;;;;4.85;3.87;;;;;;;0.97;75.91;101148.91;3420863;81;20968;-76
2023/01/06 07:25:26;;;;;;;3.75;3.27;;;;;;;0.99;76.10;101152.45;3492469;79;21167;-76
2023/01/06 07:30:17;;;;;;;4.05;3.47;;;;;;;0.98;75.95;101159.63;3441369;81;21314;-76
2023/01/06 07:35:09;;;;;;;3.70;3.40;;;;;;;0.98;75.91;101163.47;3449634;81;20889;-76
2023/01/06 07:40:00;;;;;;;3.90;3.60;;;;;;;1.01;75.98;101162.79;3456300;79;20921;-76
2023/01/06 07:44:51;;;;;;;4.00;3.52;;;;;;;0.99;75.89;101171.66;3423997;81;20944;-76
2023/01/06 07:49:42;;;;;;;3.90;3.47;;;;;;;1.00;76.03;101178.53;3480358;81;20900;-76
2023/01/06 07:54:33;;;;;;;3.77;3.47;;;;;;;1.00;75.93;101172.53;3458778;79;21291;-76
2023/01/06 07:59:25;;;;;;;3.85;3.27;;;;;;;1.00;75.89;101169.56;3441680;81;21000;-75
2023/01/06 08:04:16;;;;;;;3.83;3.42;;;;;;;0.95;75.59;101183.38;3444114;81;20963;-76
2023/01/06 08:09:07;;;;;;;3.75;3.12;;;;;;;0.99;75.79;101175.90;3433409;81;20964;-76
2023/01/06 08:13:58;;;;;;;4.00;3.05;;;;;;;1.03;75.76;101173.61;3491028;79;21045;-76
2023/01/06 08:18:49;;;;;;;4.55;3.70;;;;;;;1.08;75.87;101177.34;3426944;80;21035;-76
2023/01/06 08:23:40;;;;;;;4.65;3.98;;;;;;;1.17;75.81;101178.72;3494820;81;20967;-76
2023/01/06 08:28:32;;;;;;;4.42;3.60;;;;;;;1.17;75.81;101178.72;3480185;81;21624;-76
2023/01/06 08:33:24;;;;;;;4.85;4.00;;;;;;;1.17;75.66;101177.44;3442433;81;20920;-76
2023/01/06 08:38:15;;;;;;;4.70;3.83;;;;;;;1.19;75.50;101198.91;3487601;81;21077;-76
2023/01/06 08:43:06;;;;;;;4.65;3.87;;;;;;;1.24;75.50;101207.77;3419746;79;21531;-76
2023/01/06 08:47:57;;;;;;;4.42;3.95;;;;;;;1.26;75.51;101201.06;3490871;81;21010;-76
2023/01/06 08:52:48;;;;;;;4.62;4.08;;;;;;;1.26;75.41;101211.31;3486862;80;21648;-77
2023/01/06 08:57:39;;;;;;;5.97;4.20;;;;;;;1.27;75.40;101214.34;3489222;79;21025;-77
2023/01/06 09:02:30;;;;;;;4.58;4.17;;;;;;;1.28;75.18;101215.72;3512583;79;20964;-77
2023/01/06 09:07:21;;;;;;;4.00;3.70;;;;;;;1.31;75.26;101215.05;3510656;79;20955;-77
2023/01/06 09:12:13;;;;;;;4.95;3.60;;;;;;;1.36;75.39;101208.53;3489035;79;21035;-77
2023/01/06 09:17:04;;;;;;;3.35;2.90;;;;;;;1.38;75.00;101200.55;3460452;79;21038;-77
2023/01/06 09:21:55;;;;;;;3.87;3.17;;;;;;;1.38;75.11;101205.66;3462609;80;21427;-77
2023/01/06 09:26:46;;;;;;;4.10;3.60;;;;;;;1.38;75.11;101204.39;3500160;79;21073;-77
2023/01/06 09:31:37;;;;;;;3.40;3.10;;;;;;;1.46;75.21;101200.59;3522103;80;20945;-77
2023/01/06 09:36:29;;;;;;;3.80;3.50;;;;;;;1.56;75.25;101197.31;3456005;80;20980;-77
2023/01/06 09:41:37;;;;;;;4.62;3.27;;;;;;;1.61;75.07;101194.27;3512874;80;20980;-77
2023/01/06 09:46:33;;;;;;;4.08;3.47;;;;;;;1.66;75.21;101199.65;3517182;80;21012;-77
2023/01/06 09:51:27;;;;;;;4.78;4.37;;;;;;;1.63;74.80;101190.52;3463503;81;21035;-76
2023/01/06 09:56:21;;;;;;;3.17;2.87;;;;;;;1.64;74.52;101186.73;3488132;81;21277;-76
2023/01/06 10:01:16;;;;;;;5.78;3.62;;;;;;;1.64;74.68;101188.02;3460610;79;21513;-76
2023/01/06 10:06:32;;;;;;;3.27;2.98;;;;;;;1.65;74.47;101190.20;3460192;80;21178;-76
2023/01/06 10:11:52;;;;;;;3.50;3.05;;;;;;;1.65;74.08;101190.20;3478475;81;20925;-75
2023/01/06 10:17:12;;;;;;;3.15;2.85;;;;;;;1.60;74.30;101182.63;3447768;80;20981;-75
2023/01/06 10:22:14;;;;;;;4.33;3.92;;;;;;;1.63;74.43;101176.42;3470949;80;21495;-76
2023/01/06 10:27:40;;;;;;;3.90;3.55;;;;;;;1.71;74.67;101175.18;3463029;81;21032;-76
2023/01/06 10:32:35;;;;;;;5.67;3.50;;;;;;;1.73;74.50;101159.48;3404879;81;20941;-76
2023/01/06 10:37:37;;;;;;;3.10;2.80;;;;;;;1.75;74.47;101170.72;3466763;81;20948;-76
2023/01/06 10:42:56;;;;;;;6.80;3.33;;;;;;;1.78;74.49;101159.77;3443704;81;21594;-77
2023/01/06 10:47:47;;;;;;;5.40;4.42;;;;;;;1.83;74.48;101140.02;3440047;81;20999;-76
2023/01/06 10:52:38;;;;;;;4.15;3.65;;;;;;;1.86;74.39;101135.45;3415371;81;21062;-76
2023/01/06 10:57:37;;;;;;;5.62;4.60;;;;;;;1.91;74.13;101143.02;3439232;81;20985;-77
2023/01/06 11:02:28;;;;;;;9.48;7.00;;;;;;;1.87;73.91;101132.98;3466696;81;20959;-77
2023/01/06 11:07:19;;;;;;;7.47;6.60;;;;;;;1.91;74.33;101141.74;3370362;81;21477;-77
2023/01/06 11:12:19;;;;;;;7.53;6.25;;;;;;;1.96;74.10;101138.18;3478088;80;21001;-76
2023/01/06 11:17:14;;;;;;;7.92;7.00;;;;;;;1.92;73.90;101127.27;3484600;80;21315;-76
2023/01/06 11:22:33;;;;;;;9.48;7.35;;;;;;;1.86;74.12;101123.54;3479340;80;21107;-76
2023/01/06 11:27:25;;;;;;;10.38;7.30;;;;;;;1.87;74.25;101115.03;3503147;79;21039;-76
2023/01/06 11:32:26;;;;;;;9.35;7.70;;;;;;;1.86;74.04;101115.84;3473414;80;21577;-76
2023/01/06 11:37:31;;;;;;;7.10;5.83;;;;;;;1.87;74.27;101116.72;3461811;80;21039;-76
2023/01/06 11:42:25;;;;;;;8.43;7.10;;;;;;;1.87;74.06;101116.72;3456886;80;21028;-76
2023/01/06 11:47:23;;;;;;;8.43;7.10;;;;;;;1.86;74.23;101108.16;3467485;80;21041;-76
2023/01/06 11:52:31;;;;;;;9.95;7.40;;;;;;;1.85;73.96;101101.25;3451261;79;21521;-76
2023/01/06 11:57:31;;;;;;;8.08;6.50;;;;;;;1.88;74.16;101091.17;3494007;80;21744;-75
2023/01/06 12:02:34;;;;;;;9.80;7.12;;;;;;;1.81;73.87;101077.52;3443520;81;20990;-76
2023/01/06 12:07:50;;;;;;;8.18;6.92;;;;;;;1.79;74.13;101084.61;3488239;79;20979;-76
2023/01/06 12:12:41;;;;;;;8.10;7.30;;;;;;;1.78;74.11;101092.70;3440577;81;21138;-76
2023/01/06 12:17:47;;;;;;;10.48;7.58;;;;;;;1.80;74.38;101094.09;3354808;81;21527;-76
2023/01/06 12:22:48;;;;;;;7.15;6.45;;;;;;;1.84;74.48;101096.02;3416233;82;21103;-76
2023/01/06 12:27:57;;;;;;;8.83;7.75;;;;;;;1.82;74.16;101088.23;3406773;81;21637;-76
2023/01/06 12:32:53;;;;;;;9.05;7.42;;;;;;;1.76;74.04;101085.33;3402173;81;20981;-76
2023/01/06 12:37:58;;;;;;;10.38;7.75;;;;;;;1.78;74.23;101068.35;3378110;82;21504;-76
2023/01/06 12:43:17;;;;;;;10.60;7.30;;;;;;;1.79;74.23;101070.51;3425247;81;21012;-76
2023/01/06 12:48:38;;;;;;;8.43;6.80;;;;;;;1.79;74.31;101067.57;3428654;80;21156;-76
2023/01/06 12:53:43;;;;;;;8.10;6.83;;;;;;;1.79;74.18;101067.57;3492612;80;21764;-77
2023/01/06 12:58:46;;;;;;;10.58;7.17;;;;;;;1.77;74.32;101064.04;3486385;80;20987;-76
2023/01/06 13:04:04;;;;;;;8.80;7.20;;;;;;;1.76;74.28;101055.84;3466646;80;20997;-77
2023/01/06 13:09:29;;;;;;;8.98;7.33;;;;;;;1.73;74.33;101051.81;3495128;80;20921;-76
2023/01/06 13:14:41;;;;;;;10.93;8.40;;;;;;;1.72;74.36;101060.32;3484085;80;21210;-77
2023/01/06 13:19:47;;;;;;;9.70;7.80;;;;;;;1.71;74.45;101071.36;3472333;79;21069;-76
2023/01/06 13:24:59;;;;;;;11.43;8.83;;;;;;;1.64;74.26;101073.08;3474754;80;20911;-78
2023/01/06 13:30:02;;;;;;;12.05;8.83;;;;;;;1.62;74.28;101070.83;3461155;80;20998;-77
2023/01/06 13:35:14;;;;;;;13.98;9.98;;;;;;;1.57;74.14;101069.66;3500902;79;21196;-77
2023/01/06 13:40:15;;;;;;;12.70;9.78;;;;;;;1.53;74.41;101067.32;3490679;80;21005;-76
2023/01/06 13:45:15;;;;;;;14.43;9.85;;;;;;;1.55;74.64;101064.85;3470596;80;20968;-77
2023/01/06 13:50:14;;;;;;;17.67;11.57;;;;;;;1.50;74.58;101059.06;3507360;80;20967;-77
2023/01/06 13:55:25;;;;;;;16.60;10.63;;;;;;;1.47;74.66;101057.59;3498021;80;21059;-77
2023/01/06 14:00:23;;;;;;;12.60;9.28;;;;;;;1.49;74.80;101039.34;3404865;80;20947;-76
2023/01/06 14:05:27;;;;;;;11.80;9.65;;;;;;;1.52;74.88;101029.66;3451218;80;21562;-77
2023/01/06 14:10:42;;;;;;;12.63;9.30;;;;;;;1.49;74.78;101017.56;3478577;80;20990;-76
2023/01/06 14:15:53;;;;;;;12.28;9.75;;;;;;;1.50;74.94;101018.06;3458566;80;21039;-77
2023/01/06 14:20:35;;;;;;;11.45;8.13;;;;;;;1.50;74.91;101000.13;3401965;80;20971;-76
2023/01/06 14:25:28;;;;;;;13.62;8.60;;;;;;;1.48;74.97;100983.75;3477371;80;22385;-77
2023/01/06 14:30:30;;;;;;;10.58;7.90;;;;;;;1.47;75.10;100998.66;3427919;81;21070;-77
2023/01/06 14:35:34;;;;;;;12.10;8.73;;;;;;;1.46;75.03;100987.91;3461373;81;20971;-77
2023/01/06 14:40:31;;;;;;;11.30;7.45;;;;;;;1.45;75.21;100992.56;3495933;80;21502;-77
2023/01/06 14:45:29;;;;;;;12.37;9.90;;;;;;;1.43;75.12;101000.56;3483743;79;20924;-77
2023/01/06 14:51:13;;;;;;;11.88;9.10;;;;;;;1.39;75.04;100996.03;3510347;80;21096;-76
2023/01/06 14:56:21;;;;;;;12.43;9.10;;;;;;;1.37;75.35;101005.31;3480030;80;21199;-77
2023/01/06 15:01:27;;;;;;;13.00;9.78;;;;;;;1.32;75.04;101004.16;3460121;80;20993;-77
2023/01/06 15:06:24;;;;;;;13.88;10.28;;;;;;;1.27;75.21;101022.20;3496922;80;22277;-76
2023/01/06 15:11:27;;;;;;;13.55;10.63;;;;;;;1.24;75.24;101022.05;3494108;81;20916;-77
2023/01/06 15:16:23;;;;;;;11.43;9.45;;;;;;;1.23;75.28;101029.23;3493597;79;20882;-77
2023/01/06 15:21:16;;;;;;;14.13;10.53;;;;;;;1.22;75.46;101015.55;3449137;80;21076;-77
2023/01/06 15:26:25;;;;;;;15.90;9.55;;;;;;;1.23;75.60;101010.02;3425897;79;21002;-77
2023/01/06 15:31:18;;;;;;;12.37;9.28;;;;;;;1.23;75.48;101003.62;3486262;80;21015;-77
2023/01/06 15:36:15;;;;;;;16.12;10.20;;;;;;;1.19;75.62;100987.59;3465965;80;21008;-76
2023/01/06 15:41:31;;;;;;;14.67;9.93;;;;;;;1.18;75.77;100975.19;3482103;80;21375;-76
2023/01/06 15:46:09;;;;;;;13.60;10.10;;;;;;;1.18;75.78;100974.28;3478255;79;20993;-77
2023/01/06 15:51:01;;;;;;;;;;;;;;;1.14;75.73;100970.28;3470788;79;21007;-77
2023/01/06 15:55:55;;;;;;;17.90;10.58;;;;;;;1.13;75.74;100956.98;3496444;79;20252;-77
2023/01/06 16:00:56;;;;;;;19.07;13.32;;;;;;;1.10;75.84;100952.08;3527775;80;21694;-77
2023/01/06 16:05:49;;;;;;;19.05;12.75;;;;;;;1.06;75.92;100959.09;3511620;80;21312;-76
2023/01/06 16:10:41;;;;;;;19.00;12.95;;;;;;;1.04;75.89;100959.00;3496381;80;21980;-77
2023/01/06 16:15:50;;;;;;;19.35;13.15;;;;;;;1.01;75.79;100954.97;3421180;82;20968;-77
2023/01/06 16:20:41;;;;;;;19.90;13.98;;;;;;;1.02;76.05;100942.67;3459651;81;21453;-77
2023/01/06 16:25:34;;;;;;;19.75;14.15;;;;;;;1.01;75.96;100950.26;3398146;82;21475;-76
2023/01/06 16:30:35;;;;;;;18.92;13.95;;;;;;;0.98;76.17;100948.38;3382504;81;20916;-77
2023/01/06 16:35:29;;;;;;;34.75;16.42;;;;;;;0.98;76.42;100940.70;3477106;81;21149;-77
2023/01/06 16:40:24;;;;;;;21.33;13.15;;;;;;;1.01;76.43;100929.77;3461217;81;21522;-76
2023/01/06 16:45:42;;;;;;;23.27;15.98;;;;;;;1.00;76.29;100927.58;3413154;80;20983;-77
2023/01/06 16:50:39;;;;;;;20.60;14.07;;;;;;;0.99;76.44;100916.00;3433202;81;21462;-76
2023/01/06 16:55:30;;;;;;;18.30;13.23;;;;;;;1.00;76.50;100898.14;3438099;81;20987;-77
2023/01/06 17:00:22;;;;;;;18.60;13.10;;;;;;;1.00;76.58;100895.58;3416413;81;20979;-77
2023/01/06 17:05:27;;;;;;;16.70;13.20;;;;;;;0.98;76.91;100893.33;3412957;82;21200;-77
2023/01/06 17:10:22;;;;;;;16.90;12.70;;;;;;;0.97;77.06;100882.62;3453821;80;21569;-77
2023/01/06 17:15:13;;;;;;;20.48;13.72;;;;;;;0.97;77.24;100880.06;3478770;79;20955;-77
2023/01/06 17:20:09;;;;;;;19.45;13.05;;;;;;;0.94;77.50;100892.67;3494976;80;21046;-76
2023/01/06 17:25:04;;;;;;;18.77;13.20;;;;;;;0.92;77.47;100877.63;3467848;79;22004;-76
2023/01/06 17:30:00;;;;;;;18.42;13.35;;;;;;;0.91;77.60;100884.80;3488626;80;21501;-76
2023/01/06 17:34:52;;;;;;;20.80;14.47;;;;;;;0.90;77.86;100872.81;3489722;80;20972;-76
2023/01/06 17:39:45;;;;;;;17.67;12.75;;;;;;;0.84;77.97;100859.64;3488505;80;20991;-76
2023/01/06 17:44:44;;;;;;;21.33;15.08;;;;;;;0.82;78.33;100845.88;3497669;80;20921;-76
2023/01/06 17:49:35;;;;;;;17.60;11.22;;;;;;;0.80;78.58;100834.67;3486955;79;21133;-77
2023/01/06 17:59:39;;;;;;;20.70;14.70;;;;;;;0.71;79.02;100845.25;3482799;81;20960;-76
2023/01/06 18:04:30;;;;;;;21.90;15.95;;;;;;;0.68;79.41;100842.12;3510607;80;21430;-76
2023/01/06 18:09:24;;;;;;;25.40;15.32;;;;;;;0.68;79.59;100839.57;3490612;81;20995;-76
2023/01/06 18:14:20;;;;;;;21.10;14.83;;;;;;;0.67;79.77;100839.06;3500979;79;22203;-76
2023/01/06 18:19:28;;;;;;;20.47;14.50;;;;;;;0.68;79.98;100834.83;3493215;81;21373;-76
2023/01/06 18:24:38;;;;;;;18.85;14.43;;;;;;;0.67;80.10;100833.95;3442891;79;20940;-76
2023/01/06 18:29:35;;;;;;;21.75;15.48;;;;;;;0.67;80.26;100824.99;3476378;79;20980;-76
2023/01/06 18:34:42;;;;;;;22.95;16.50;;;;;;;0.61;80.28;100811.86;3487790;80;21281;-76
2023/01/06 18:39:42;;;;;;;23.40;16.45;;;;;;;0.62;80.56;100798.25;3451257;80;21167;-76
2023/01/06 18:44:33;;;;;;;22.25;15.18;;;;;;;0.63;80.74;100798.75;3478992;80;21026;-76
2023/01/06 18:49:29;;;;;;;23.52;16.27;;;;;;;0.65;80.92;100792.04;3462206;80;21045;-76
2023/01/06 18:54:21;;;;;;;20.65;15.18;;;;;;;0.68;80.97;100799.91;3449270;81;21506;-76
2023/01/06 18:59:17;;;;;;;22.80;15.40;;;;;;;0.67;81.00;100793.00;3464450;80;21471;-76
2023/01/06 19:04:31;;;;;;;25.68;17.75;;;;;;;0.67;81.15;100767.82;3509325;79;21242;-76
2023/01/06 19:09:34;;;;;;;23.45;17.75;;;;;;;0.65;81.18;100760.05;3471182;79;21460;-76
2023/01/06 19:14:29;;;;;;;22.70;16.73;;;;;;;0.65;81.35;100744.70;3520447;79;20908;-76
2023/01/06 19:19:31;;;;;;;26.52;17.57;;;;;;;0.64;81.48;100746.76;3503143;79;21015;-76
2023/01/06 19:24:37;;;;;;;22.77;15.83;;;;;;;0.65;81.62;100753.66;3472007;79;21011;-76
2023/01/06 19:29:34;;;;;;;21.60;15.75;;;;;;;0.65;81.70;100741.27;3520068;80;21309;-76
2023/01/06 19:34:25;;;;;;;24.92;17.00;;;;;;;0.64;81.85;100736.52;3492201;79;20987;-77
2023/01/06 19:39:31;;;;;;;22.52;16.07;;;;;;;0.63;81.90;100747.57;3472953;80;21454;-76
2023/01/06 19:44:31;;;;;;;26.80;17.82;;;;;;;0.65;82.08;100739.58;3516423;79;21193;-76
2023/01/06 19:49:25;;;;;;;26.68;16.20;;;;;;;0.66;82.25;100734.96;3500610;79;20981;-76
2023/01/06 19:54:35;;;;;;;24.07;15.43;;;;;;;0.68;82.23;100725.69;3500448;80;21228;-76
2023/01/06 19:59:32;;;;;;;21.75;14.58;;;;;;;0.69;82.29;100744.07;3465632;79;21041;-76
2023/01/06 20:04:26;;;;;;;23.30;15.50;;;;;;;0.72;82.41;100745.53;3499092;79;20900;-76
2023/01/06 20:09:20;;;;;;;20.80;15.63;;;;;;;0.69;82.52;100727.44;3446433;79;20988;-76
2023/01/06 20:14:10;;;;;;;21.52;15.10;;;;;;;0.71;82.72;100725.84;3381458;81;20972;-76
2023/01/06 20:19:03;;;;;;;19.75;13.45;;;;;;;0.74;82.80;100720.03;3422318;82;21486;-76
2023/01/06 20:23:55;;;;;;;18.92;13.60;;;;;;;0.72;82.85;100712.67;3342583;82;21049;-76
2023/01/06 20:28:46;;;;;;;24.07;16.60;;;;;;;0.73;83.00;100710.58;3433158;81;21299;-76
2023/01/06 20:33:37;;;;;;;21.95;15.10;;;;;;;0.74;83.04;100711.95;3383147;82;21447;-76
2023/01/06 20:38:28;;;;;;;24.32;15.80;;;;;;;0.73;83.11;100710.58;3434605;81;20996;-76
2023/01/06 20:43:19;;;;;;;19.23;14.53;;;;;;;0.76;83.20;100707.79;3365016;81;21431;-76
2023/01/06 20:48:10;;;;;;;24.82;16.87;;;;;;;0.78;83.24;100712.13;3400091;81;21031;-76
2023/01/06 20:53:01;;;;;;;23.90;17.48;;;;;;;0.78;83.28;100704.04;3438021;81;21039;-76
2023/01/06 20:57:52;;;;;;;24.12;18.15;;;;;;;0.79;83.35;100703.26;3406984;81;21008;-76
2023/01/06 21:02:43;;;;;;;27.30;18.35;;;;;;;0.79;83.44;100689.18;3371118;81;20969;-76
2023/01/06 21:07:34;;;;;;;28.42;20.48;;;;;;;0.82;83.42;100706.38;3394947;82;20991;-76
2023/01/06 21:12:25;;;;;;;28.75;20.20;;;;;;;0.81;83.48;100708.47;3408081;81;21059;-77
2023/01/06 21:17:16;;;;;;;31.68;22.27;;;;;;;0.80;83.59;100724.61;3435820;80;20941;-76
2023/01/06 21:22:07;;;;;;;25.08;19.30;;;;;;;0.83;83.66;100727.34;3484565;81;20948;-76
2023/01/06 21:26:58;;;;;;;29.12;20.23;;;;;;;0.84;83.67;100734.21;3489674;80;21031;-76
2023/01/06 21:31:49;;;;;;;28.90;20.05;;;;;;;0.84;83.64;100726.53;3473410;80;21450;-77
2023/01/06 21:36:40;;;;;;;31.93;22.75;;;;;;;0.85;83.75;100736.86;3476768;81;20983;-75
2023/01/06 21:46:41;;;;;;;28.55;19.73;;;;;;;0.88;83.88;100733.61;3465956;80;21023;-76
2023/01/06 21:51:34;;;;;;;28.27;18.62;;;;;;;0.88;83.85;100728.08;3476851;80;22676;-76
2023/01/06 21:56:25;;;;;;;28.20;20.75;;;;;;;0.89;83.90;100725.12;3472864;80;21367;-75
2023/01/06 22:01:17;;;;;;;29.48;21.93;;;;;;;0.89;83.93;100722.55;3498881;80;21513;-76
2023/01/06 22:06:09;;;;;;;29.85;20.77;;;;;;;0.91;84.00;100719.67;3427039;80;20997;-76
2023/01/06 22:11:01;;;;;;;34.05;22.40;;;;;;;0.94;84.07;100717.30;3460332;80;21043;-76
2023/01/06 22:15:52;;;;;;;27.25;18.55;;;;;;;0.94;84.06;100717.30;3443862;80;20920;-76
2023/01/06 22:20:43;;;;;;;29.65;20.97;;;;;;;0.94;84.03;100710.48;3424453;80;22001;-76
2023/01/06 22:25:35;;;;;;;29.50;21.17;;;;;;;0.93;84.05;100712.59;3442551;80;21643;-76
2023/01/06 22:30:26;;;;;;;34.60;23.10;;;;;;;0.94;84.16;100714.33;3409146;80;20949;-76
2023/01/06 22:35:18;;;;;;;28.02;20.27;;;;;;;0.95;84.28;100726.35;3428773;80;20968;-76
2023/01/06 22:40:11;;;;;;;29.40;21.62;;;;;;;0.97;84.24;100730.66;3476001;80;20950;-76
2023/01/06 22:45:04;;;;;;;28.57;20.48;;;;;;;0.96;84.24;100725.94;3403121;80;21295;-76
2023/01/06 22:49:56;;;;;;;27.55;19.92;;;;;;;0.96;84.25;100727.22;3425646;80;20956;-76
2023/01/06 22:54:47;;;;;;;25.05;18.23;;;;;;;0.94;84.32;100734.81;3468824;81;20938;-76
2023/01/06 22:59:39;;;;;;;30.57;19.90;;;;;;;0.94;84.34;100733.94;3388589;80;38927;-76
2023/01/06 23:04:30;;;;;;;29.80;19.48;;;;;;;0.95;84.71;100747.24;3403969;81;21014;-76
2023/01/06 23:09:21;;;;;;;27.37;18.82;;;;;;;0.95;84.71;100747.24;3430565;80;21208;-76
2023/01/06 23:14:12;;;;;;;27.65;18.82;;;;;;;0.98;84.50;100735.86;3404421;82;20995;-77